sensor_id;sensor_type;location;lat;lon;timestamp;pressure;altitude;pressure_sealevel;temperature;humidity
67345;BME280;54230;52.402;6.276;2024-01-15T00:00:00;100170.0;;;2.6;85.4
67345;BME280;54230;52.402;6.276;2024-01-15T00:05:00;100170.0;;;2.6;85.4
67345;BME280;54230;52.402;6.276;2024-01-15T00:10:00;100150.0;;;2.6;85.4
67345;BME280;54230;52.402;6.276;2024-01-15T00:15:00;100140.0;;;2.5;85.3
67345;BME280;54230;52.402;6.276;2024-01-15T00:20:00;100150.0;;;2.6;85.3
67345;BME280;54230;52.402;6.276;2024-01-15T00:25:00;100140.0;;;2.5;85.2
67345;BME280;54230;52.402;6.276;2024-01-15T00:30:00;100130.0;;;2.5;85.2
67345;BME280;54230;52.402;6.276;2024-01-15T00:35:00;100130.0;;;2.5;85.2
67345;BME280;54230;52.402;6.276;2024-01-15T00:40:00;100130.0;;;2.6;85.2
67345;BME280;54230;52.402;6.276;2024-01-15T00:45:00;100120.0;;;2.7;85.1
67345;BME280;54230;52.402;6.276;2024-01-15T00:50:00;100110.0;;;2.6;84.9
67345;BME280;54230;52.402;6.276;2024-01-15T00:55:00;100110.0;;;2.5;85.0
67345;BME280;54230;52.402;6.276;2024-01-15T01:00:00;100110.0;;;2.5;85.0
67345;BME280;54230;52.402;6.276;2024-01-15T01:05:00;100100.0;;;2.5;85.1
67345;BME280;54230;52.402;6.276;2024-01-15T01:10:00;100100.0;;;2.4;85.0
67345;BME280;54230;52.402;6.276;2024-01-15T01:15:00;100090.0;;;2.4;85.0
67345;BME280;54230;52.402;6.276;2024-01-15T01:20:00;100090.0;;;2.4;85.2
67345;BME280;54230;52.402;6.276;2024-01-15T01:25:00;100080.0;;;2.3;85.1
67345;BME280;54230;52.402;6.276;2024-01-15T01:30:00;100080.0;;;2.3;85.0
67345;BME280;54230;52.402;6.276;2024-01-15T01:35:00;100080.0;;;2.3;85.1
67345;BME280;54230;52.402;6.276;2024-01-15T01:40:00;100080.0;;;2.3;85.1
67345;BME280;54230;52.402;6.276;2024-01-15T01:45:00;100090.0;;;2.3;85.0
67345;BME280;54230;52.402;6.276;2024-01-15T01:50:01;100080.0;;;2.3;85.0
67345;BME280;54230;52.402;6.276;2024-01-15T01:55:02;100070.0;;;2.3;85.0
67345;BME280;54230;52.402;6.276;2024-01-15T02:00:01;100070.0;;;2.4;85.0
67345;BME280;54230;52.402;6.276;2024-01-15T02:05:00;100070.0;;;2.3;85.0
67345;BME280;54230;52.402;6.276;2024-01-15T02:10:00;100070.0;;;2.3;85.0
67345;BME280;54230;52.402;6.276;2024-01-15T02:15:00;100070.0;;;2.3;85.1
67345;BME280;54230;52.402;6.276;2024-01-15T02:20:00;100070.0;;;2.3;85.2
67345;BME280;54230;52.402;6.276;2024-01-15T02:25:00;100070.0;;;2.3;85.1
67345;BME280;54230;52.402;6.276;2024-01-15T02:30:00;100080.0;;;2.3;85.1
67345;BME280;54230;52.402;6.276;2024-01-15T02:35:00;100070.0;;;2.3;85.1
67345;BME280;54230;52.402;6.276;2024-01-15T02:40:00;100070.0;;;2.4;85.2
67345;BME280;54230;52.402;6.276;2024-01-15T02:45:00;100070.0;;;2.5;85.2
67345;BME280;54230;52.402;6.276;2024-01-15T02:50:00;100080.0;;;2.5;85.1
67345;BME280;54230;52.402;6.276;2024-01-15T02:55:00;100070.0;;;2.5;85.2
67345;BME280;54230;52.402;6.276;2024-01-15T03:00:00;100070.0;;;2.5;85.2
67345;BME280;54230;52.402;6.276;2024-01-15T03:05:00;100070.0;;;2.6;85.0
67345;BME280;54230;52.402;6.276;2024-01-15T03:10:00;100070.0;;;2.7;85.0
67345;BME280;54230;52.402;6.276;2024-01-15T03:15:00;100080.0;;;2.9;85.0
67345;BME280;54230;52.402;6.276;2024-01-15T03:20:01;100080.0;;;3.0;84.8
67345;BME280;54230;52.402;6.276;2024-01-15T03:25:00;100080.0;;;3.1;84.8
67345;BME280;54230;52.402;6.276;2024-01-15T03:30:00;100080.0;;;3.1;84.6
67345;BME280;54230;52.402;6.276;2024-01-15T03:35:00;100080.0;;;3.0;84.4
67345;BME280;54230;52.402;6.276;2024-01-15T03:40:00;100080.0;;;2.9;84.2
67345;BME280;54230;52.402;6.276;2024-01-15T03:45:00;100070.0;;;2.8;84.1
67345;BME280;54230;52.402;6.276;2024-01-15T03:50:00;100060.0;;;2.9;84.0
67345;BME280;54230;52.402;6.276;2024-01-15T03:55:00;100050.0;;;2.9;83.6
67345;BME280;54230;52.402;6.276;2024-01-15T04:00:00;100050.0;;;2.8;83.4
67345;BME280;54230;52.402;6.276;2024-01-15T04:05:00;100060.0;;;2.8;83.2
67345;BME280;54230;52.402;6.276;2024-01-15T04:10:00;100060.0;;;3.0;83.0
67345;BME280;54230;52.402;6.276;2024-01-15T04:15:00;100060.0;;;3.1;82.9
67345;BME280;54230;52.402;6.276;2024-01-15T04:20:00;100060.0;;;3.2;82.7
67345;BME280;54230;52.402;6.276;2024-01-15T04:25:00;100070.0;;;3.2;82.3
67345;BME280;54230;52.402;6.276;2024-01-15T04:30:00;100070.0;;;3.0;81.8
67345;BME280;54230;52.402;6.276;2024-01-15T04:35:00;100060.0;;;2.9;81.9
67345;BME280;54230;52.402;6.276;2024-01-15T04:40:00;100050.0;;;2.8;82.0
67345;BME280;54230;52.402;6.276;2024-01-15T04:45:00;100050.0;;;2.8;82.5
67345;BME280;54230;52.402;6.276;2024-01-15T04:50:00;100060.0;;;2.9;82.8
67345;BME280;54230;52.402;6.276;2024-01-15T04:55:00;100060.0;;;2.8;82.9
67345;BME280;54230;52.402;6.276;2024-01-15T05:00:00;100040.0;;;2.9;83.1
67345;BME280;54230;52.402;6.276;2024-01-15T05:05:00;100020.0;;;2.8;83.3
67345;BME280;54230;52.402;6.276;2024-01-15T05:10:00;100020.0;;;2.8;83.6
67345;BME280;54230;52.402;6.276;2024-01-15T05:15:00;100040.0;;;2.9;83.6
67345;BME280;54230;52.402;6.276;2024-01-15T05:20:00;100040.0;;;2.9;83.6
67345;BME280;54230;52.402;6.276;2024-01-15T05:25:00;100030.0;;;2.8;83.8
67345;BME280;54230;52.402;6.276;2024-01-15T05:30:00;100030.0;;;2.8;83.9
67345;BME280;54230;52.402;6.276;2024-01-15T05:35:00;100020.0;;;2.8;84.0
67345;BME280;54230;52.402;6.276;2024-01-15T05:40:00;100020.0;;;2.9;83.8
67345;BME280;54230;52.402;6.276;2024-01-15T05:45:00;100010.0;;;2.9;83.9
67345;BME280;54230;52.402;6.276;2024-01-15T05:50:00;100010.0;;;2.9;83.8
67345;BME280;54230;52.402;6.276;2024-01-15T05:55:00;100020.0;;;2.9;83.7
67345;BME280;54230;52.402;6.276;2024-01-15T06:00:00;100020.0;;;3.0;83.7
67345;BME280;54230;52.402;6.276;2024-01-15T06:05:00;100020.0;;;3.0;83.5
67345;BME280;54230;52.402;6.276;2024-01-15T06:10:00;100010.0;;;2.9;83.2
67345;BME280;54230;52.402;6.276;2024-01-15T06:15:00;100010.0;;;2.8;83.2
67345;BME280;54230;52.402;6.276;2024-01-15T06:20:00;100000.0;;;2.7;83.3
67345;BME280;54230;52.402;6.276;2024-01-15T06:25:00;100010.0;;;2.6;83.6
67345;BME280;54230;52.402;6.276;2024-01-15T06:30:00;100000.0;;;2.5;83.6
67345;BME280;54230;52.402;6.276;2024-01-15T06:35:00;100000.0;;;2.5;83.6
67345;BME280;54230;52.402;6.276;2024-01-15T06:40:00;100000.0;;;2.4;83.8
67345;BME280;54230;52.402;6.276;2024-01-15T06:45:00;100000.0;;;2.4;84.0
67345;BME280;54230;52.402;6.276;2024-01-15T06:50:00;99990.0;;;2.4;84.1
67345;BME280;54230;52.402;6.276;2024-01-15T06:55:00;99990.0;;;2.4;84.2
67345;BME280;54230;52.402;6.276;2024-01-15T07:00:00;99990.0;;;2.5;84.3
67345;BME280;54230;52.402;6.276;2024-01-15T07:05:00;99990.0;;;2.4;84.3
67345;BME280;54230;52.402;6.276;2024-01-15T07:10:00;99980.0;;;2.3;84.4
67345;BME280;54230;52.402;6.276;2024-01-15T07:15:00;99970.0;;;2.3;84.5
67345;BME280;54230;52.402;6.276;2024-01-15T07:20:00;99970.0;;;2.2;84.4
67345;BME280;54230;52.402;6.276;2024-01-15T07:25:00;99980.0;;;2.2;84.6
67345;BME280;54230;52.402;6.276;2024-01-15T07:30:00;99990.0;;;2.2;84.5
67345;BME280;54230;52.402;6.276;2024-01-15T07:35:00;99990.0;;;2.2;84.6
67345;BME280;54230;52.402;6.276;2024-01-15T07:40:00;99990.0;;;2.2;84.6
67345;BME280;54230;52.402;6.276;2024-01-15T07:45:00;99990.0;;;2.2;84.7
67345;BME280;54230;52.402;6.276;2024-01-15T07:50:00;99990.0;;;2.2;84.8
67345;BME280;54230;52.402;6.276;2024-01-15T07:55:00;100000.0;;;2.3;84.7
67345;BME280;54230;52.402;6.276;2024-01-15T08:00:00;100000.0;;;2.3;84.7
67345;BME280;54230;52.402;6.276;2024-01-15T08:05:00;100000.0;;;2.2;84.8
67345;BME280;54230;52.402;6.276;2024-01-15T08:10:00;100010.0;;;2.2;85.0
67345;BME280;54230;52.402;6.276;2024-01-15T08:15:00;100010.0;;;2.3;85.0
67345;BME280;54230;52.402;6.276;2024-01-15T08:20:00;100000.0;;;2.3;85.0
67345;BME280;54230;52.402;6.276;2024-01-15T08:25:00;99990.0;;;2.3;85.0
67345;BME280;54230;52.402;6.276;2024-01-15T08:30:00;99990.0;;;2.4;85.0
67345;BME280;54230;52.402;6.276;2024-01-15T08:35:00;99990.0;;;2.5;84.9
67345;BME280;54230;52.402;6.276;2024-01-15T08:40:00;99990.0;;;2.6;84.8
67345;BME280;54230;52.402;6.276;2024-01-15T08:45:00;100000.0;;;2.8;84.9
67345;BME280;54230;52.402;6.276;2024-01-15T08:50:00;100000.0;;;3.0;84.7
67345;BME280;54230;52.402;6.276;2024-01-15T08:55:00;100000.0;;;3.0;84.6
67345;BME280;54230;52.402;6.276;2024-01-15T09:00:00;100000.0;;;3.1;84.5
67345;BME280;54230;52.402;6.276;2024-01-15T09:05:00;100010.0;;;3.0;84.4
67345;BME280;54230;52.402;6.276;2024-01-15T09:10:00;100000.0;;;3.0;84.3
67345;BME280;54230;52.402;6.276;2024-01-15T09:15:00;100000.0;;;2.8;84.3
67345;BME280;54230;52.402;6.276;2024-01-15T09:20:00;100000.0;;;2.7;84.4
67345;BME280;54230;52.402;6.276;2024-01-15T09:25:00;100010.0;;;2.8;84.6
67345;BME280;54230;52.402;6.276;2024-01-15T09:30:00;100000.0;;;3.1;84.5
67345;BME280;54230;52.402;6.276;2024-01-15T09:35:00;100020.0;;;3.6;84.1
67345;BME280;54230;52.402;6.276;2024-01-15T09:40:00;100020.0;;;3.5;84.3
67345;BME280;54230;52.402;6.276;2024-01-15T09:45:00;100010.0;;;3.5;84.4
67345;BME280;54230;52.402;6.276;2024-01-15T09:50:00;100000.0;;;3.5;84.2
67345;BME280;54230;52.402;6.276;2024-01-15T09:55:01;100010.0;;;3.6;84.2
67345;BME280;54230;52.402;6.276;2024-01-15T10:00:01;100010.0;;;3.6;84.2
67345;BME280;54230;52.402;6.276;2024-01-15T10:05:00;100010.0;;;3.6;84.2
67345;BME280;54230;52.402;6.276;2024-01-15T10:10:00;100010.0;;;3.5;84.2
67345;BME280;54230;52.402;6.276;2024-01-15T10:15:01;100010.0;;;3.3;83.7
67345;BME280;54230;52.402;6.276;2024-01-15T10:20:00;100010.0;;;3.1;83.1
67345;BME280;54230;52.402;6.276;2024-01-15T10:25:01;100000.0;;;3.0;83.0
67345;BME280;54230;52.402;6.276;2024-01-15T10:30:00;100000.0;;;3.0;83.5
67345;BME280;54230;52.402;6.276;2024-01-15T10:35:00;100010.0;;;3.3;83.9
67345;BME280;54230;52.402;6.276;2024-01-15T10:40:01;100000.0;;;3.4;83.9
67345;BME280;54230;52.402;6.276;2024-01-15T10:45:00;100000.0;;;3.7;84.2
67345;BME280;54230;52.402;6.276;2024-01-15T10:50:01;100000.0;;;4.0;84.4
67345;BME280;54230;52.402;6.276;2024-01-15T10:55:00;100000.0;;;4.0;84.2
67345;BME280;54230;52.402;6.276;2024-01-15T11:00:00;100000.0;;;3.7;83.8
67345;BME280;54230;52.402;6.276;2024-01-15T11:05:00;100000.0;;;3.4;84.4
67345;BME280;54230;52.402;6.276;2024-01-15T11:10:02;100000.0;;;3.4;84.8
67345;BME280;54230;52.402;6.276;2024-01-15T11:15:02;100010.0;;;3.5;84.4
67345;BME280;54230;52.402;6.276;2024-01-15T11:20:00;100020.0;;;3.5;83.7
67345;BME280;54230;52.402;6.276;2024-01-15T11:25:02;100030.0;;;3.3;83.7
67345;BME280;54230;52.402;6.276;2024-01-15T11:30:03;100030.0;;;3.4;84.2
67345;BME280;54230;52.402;6.276;2024-01-15T11:35:00;100030.0;;;3.5;85.1
67345;BME280;54230;52.402;6.276;2024-01-15T11:40:01;100030.0;;;3.3;85.3
67345;BME280;54230;52.402;6.276;2024-01-15T11:45:00;100030.0;;;3.3;85.8
67345;BME280;54230;52.402;6.276;2024-01-15T11:50:00;100030.0;;;3.5;85.6
67345;BME280;54230;52.402;6.276;2024-01-15T11:55:01;100030.0;;;3.5;85.7
67345;BME280;54230;52.402;6.276;2024-01-15T12:00:01;100030.0;;;3.6;85.7
67345;BME280;54230;52.402;6.276;2024-01-15T12:05:00;100030.0;;;3.7;85.5
67345;BME280;54230;52.402;6.276;2024-01-15T12:10:00;100030.0;;;3.5;85.6
67345;BME280;54230;52.402;6.276;2024-01-15T12:15:00;100020.0;;;3.5;85.7
67345;BME280;54230;52.402;6.276;2024-01-15T12:20:00;100020.0;;;3.5;85.5
67345;BME280;54230;52.402;6.276;2024-01-15T12:25:00;100030.0;;;3.6;85.8
67345;BME280;54230;52.402;6.276;2024-01-15T12:30:00;100030.0;;;3.6;85.7
67345;BME280;54230;52.402;6.276;2024-01-15T12:35:00;100030.0;;;3.5;85.7
67345;BME280;54230;52.402;6.276;2024-01-15T12:40:00;100040.0;;;3.4;85.8
67345;BME280;54230;52.402;6.276;2024-01-15T12:45:00;100050.0;;;3.3;85.8
67345;BME280;54230;52.402;6.276;2024-01-15T12:50:00;100040.0;;;3.4;86.0
67345;BME280;54230;52.402;6.276;2024-01-15T12:55:00;100050.0;;;3.5;85.8
67345;BME280;54230;52.402;6.276;2024-01-15T13:00:00;100040.0;;;3.5;85.7
67345;BME280;54230;52.402;6.276;2024-01-15T13:05:00;100060.0;;;3.7;85.7
67345;BME280;54230;52.402;6.276;2024-01-15T13:10:00;100060.0;;;3.8;85.7
67345;BME280;54230;52.402;6.276;2024-01-15T13:15:00;100060.0;;;4.0;85.6
67345;BME280;54230;52.402;6.276;2024-01-15T13:20:00;100050.0;;;4.0;85.5
67345;BME280;54230;52.402;6.276;2024-01-15T13:25:00;100050.0;;;4.0;85.6
67345;BME280;54230;52.402;6.276;2024-01-15T13:30:00;100060.0;;;4.1;85.5
67345;BME280;54230;52.402;6.276;2024-01-15T13:35:00;100070.0;;;4.1;85.5
67345;BME280;54230;52.402;6.276;2024-01-15T13:40:00;100080.0;;;4.0;85.9
67345;BME280;54230;52.402;6.276;2024-01-15T13:45:00;100080.0;;;4.1;86.0
67345;BME280;54230;52.402;6.276;2024-01-15T13:50:00;100080.0;;;4.3;86.1
67345;BME280;54230;52.402;6.276;2024-01-15T13:55:00;100100.0;;;4.4;86.0
67345;BME280;54230;52.402;6.276;2024-01-15T14:00:00;100100.0;;;4.2;85.9
67345;BME280;54230;52.402;6.276;2024-01-15T14:05:00;100120.0;;;4.1;85.6
67345;BME280;54230;52.402;6.276;2024-01-15T14:10:00;100120.0;;;4.0;85.3
67345;BME280;54230;52.402;6.276;2024-01-15T14:15:00;100110.0;;;3.9;84.9
67345;BME280;54230;52.402;6.276;2024-01-15T14:20:00;100130.0;;;3.8;84.6
67345;BME280;54230;52.402;6.276;2024-01-15T14:25:00;100120.0;;;3.8;84.1
67345;BME280;54230;52.402;6.276;2024-01-15T14:30:00;100120.0;;;3.7;83.9
67345;BME280;54230;52.402;6.276;2024-01-15T14:35:00;100130.0;;;3.6;83.6
67345;BME280;54230;52.402;6.276;2024-01-15T14:40:00;100140.0;;;3.6;83.6
67345;BME280;54230;52.402;6.276;2024-01-15T14:45:00;100140.0;;;3.5;83.5
67345;BME280;54230;52.402;6.276;2024-01-15T14:50:00;100150.0;;;3.5;83.3
67345;BME280;54230;52.402;6.276;2024-01-15T14:55:00;100160.0;;;3.4;83.2
67345;BME280;54230;52.402;6.276;2024-01-15T15:00:00;100170.0;;;3.4;83.3
67345;BME280;54230;52.402;6.276;2024-01-15T15:05:00;100190.0;;;3.5;83.3
67345;BME280;54230;52.402;6.276;2024-01-15T15:10:00;100200.0;;;3.4;82.7
67345;BME280;54230;52.402;6.276;2024-01-15T15:15:00;100200.0;;;3.3;82.8
67345;BME280;54230;52.402;6.276;2024-01-15T15:20:00;100200.0;;;3.3;82.7
67345;BME280;54230;52.402;6.276;2024-01-15T15:25:00;100210.0;;;3.2;83.0
67345;BME280;54230;52.402;6.276;2024-01-15T15:30:00;100210.0;;;3.2;82.9
67345;BME280;54230;52.402;6.276;2024-01-15T15:35:00;100210.0;;;3.2;82.7
67345;BME280;54230;52.402;6.276;2024-01-15T15:40:00;100190.0;;;3.2;82.5
67345;BME280;54230;52.402;6.276;2024-01-15T15:45:00;100220.0;;;3.1;82.3
67345;BME280;54230;52.402;6.276;2024-01-15T15:50:00;100240.0;;;3.0;82.1
67345;BME280;54230;52.402;6.276;2024-01-15T15:55:00;100230.0;;;3.0;81.8
67345;BME280;54230;52.402;6.276;2024-01-15T16:00:00;100240.0;;;3.2;81.3
67345;BME280;54230;52.402;6.276;2024-01-15T16:05:00;100240.0;;;3.2;80.8
67345;BME280;54230;52.402;6.276;2024-01-15T16:10:00;100250.0;;;3.2;80.5
67345;BME280;54230;52.402;6.276;2024-01-15T16:15:00;100270.0;;;3.2;80.5
67345;BME280;54230;52.402;6.276;2024-01-15T16:20:00;100280.0;;;3.0;79.8
67345;BME280;54230;52.402;6.276;2024-01-15T16:25:00;100290.0;;;2.9;79.9
67345;BME280;54230;52.402;6.276;2024-01-15T16:30:00;100300.0;;;2.9;80.5
67345;BME280;54230;52.402;6.276;2024-01-15T16:35:00;100310.0;;;2.9;80.9
67345;BME280;54230;52.402;6.276;2024-01-15T16:40:00;100300.0;;;2.9;80.7
67345;BME280;54230;52.402;6.276;2024-01-15T16:45:00;100300.0;;;2.6;81.2
67345;BME280;54230;52.402;6.276;2024-01-15T16:50:00;100310.0;;;2.8;81.1
67345;BME280;54230;52.402;6.276;2024-01-15T16:55:00;100320.0;;;2.8;81.4
67345;BME280;54230;52.402;6.276;2024-01-15T17:00:00;100330.0;;;2.8;81.6
67345;BME280;54230;52.402;6.276;2024-01-15T17:05:00;100330.0;;;2.8;81.7
67345;BME280;54230;52.402;6.276;2024-01-15T17:10:00;100350.0;;;2.8;82.2
67345;BME280;54230;52.402;6.276;2024-01-15T17:15:00;100350.0;;;2.9;82.5
67345;BME280;54230;52.402;6.276;2024-01-15T17:20:00;100350.0;;;2.9;82.9
67345;BME280;54230;52.402;6.276;2024-01-15T17:25:00;100360.0;;;2.8;83.0
67345;BME280;54230;52.402;6.276;2024-01-15T17:30:00;100370.0;;;2.9;83.2
67345;BME280;54230;52.402;6.276;2024-01-15T17:35:00;100380.0;;;2.9;83.2
67345;BME280;54230;52.402;6.276;2024-01-15T17:40:00;100390.0;;;3.0;83.3
67345;BME280;54230;52.402;6.276;2024-01-15T17:45:00;100390.0;;;3.0;83.4
67345;BME280;54230;52.402;6.276;2024-01-15T17:50:00;100390.0;;;3.0;83.4
67345;BME280;54230;52.402;6.276;2024-01-15T17:55:00;100400.0;;;2.9;83.6
67345;BME280;54230;52.402;6.276;2024-01-15T18:00:00;100410.0;;;2.9;83.7
67345;BME280;54230;52.402;6.276;2024-01-15T18:05:00;100430.0;;;3.0;83.7
67345;BME280;54230;52.402;6.276;2024-01-15T18:10:00;100420.0;;;3.0;83.7
67345;BME280;54230;52.402;6.276;2024-01-15T18:15:00;100420.0;;;2.9;83.6
67345;BME280;54230;52.402;6.276;2024-01-15T18:20:00;100430.0;;;2.8;83.8
67345;BME280;54230;52.402;6.276;2024-01-15T18:25:00;100460.0;;;3.0;84.0
67345;BME280;54230;52.402;6.276;2024-01-15T18:30:00;100470.0;;;3.1;84.1
67345;BME280;54230;52.402;6.276;2024-01-15T18:35:00;100470.0;;;3.0;83.3
67345;BME280;54230;52.402;6.276;2024-01-15T18:40:00;100470.0;;;2.8;83.5
67345;BME280;54230;52.402;6.276;2024-01-15T18:45:00;100480.0;;;2.7;83.6
67345;BME280;54230;52.402;6.276;2024-01-15T18:50:00;100480.0;;;2.6;83.6
67345;BME280;54230;52.402;6.276;2024-01-15T18:55:00;100490.0;;;2.5;83.7
67345;BME280;54230;52.402;6.276;2024-01-15T19:00:00;100490.0;;;2.6;84.1
67345;BME280;54230;52.402;6.276;2024-01-15T19:05:00;100490.0;;;2.6;84.0
67345;BME280;54230;52.402;6.276;2024-01-15T19:10:00;100500.0;;;2.7;84.0
67345;BME280;54230;52.402;6.276;2024-01-15T19:15:00;100510.0;;;2.7;84.1
67345;BME280;54230;52.402;6.276;2024-01-15T19:20:00;100520.0;;;2.8;84.1
67345;BME280;54230;52.402;6.276;2024-01-15T19:25:00;100530.0;;;2.9;83.8
67345;BME280;54230;52.402;6.276;2024-01-15T19:30:00;100530.0;;;2.9;83.9
67345;BME280;54230;52.402;6.276;2024-01-15T19:35:00;100540.0;;;2.9;84.0
67345;BME280;54230;52.402;6.276;2024-01-15T19:40:00;100540.0;;;2.8;84.2
67345;BME280;54230;52.402;6.276;2024-01-15T19:45:00;100540.0;;;2.8;84.4
67345;BME280;54230;52.402;6.276;2024-01-15T19:50:00;100550.0;;;2.9;84.3
67345;BME280;54230;52.402;6.276;2024-01-15T19:55:00;100540.0;;;2.9;84.1
67345;BME280;54230;52.402;6.276;2024-01-15T20:00:00;100550.0;;;2.8;84.3
67345;BME280;54230;52.402;6.276;2024-01-15T20:05:00;100560.0;;;2.8;84.3
67345;BME280;54230;52.402;6.276;2024-01-15T20:10:00;100560.0;;;2.7;84.3
67345;BME280;54230;52.402;6.276;2024-01-15T20:15:00;100560.0;;;2.6;84.5
67345;BME280;54230;52.402;6.276;2024-01-15T20:20:00;100580.0;;;2.5;84.5
67345;BME280;54230;52.402;6.276;2024-01-15T20:25:00;100580.0;;;2.6;84.6
67345;BME280;54230;52.402;6.276;2024-01-15T20:30:00;100570.0;;;2.7;84.3
67345;BME280;54230;52.402;6.276;2024-01-15T20:35:00;100580.0;;;2.6;84.3
67345;BME280;54230;52.402;6.276;2024-01-15T20:40:00;100580.0;;;2.5;84.5
67345;BME280;54230;52.402;6.276;2024-01-15T20:45:00;100590.0;;;2.5;84.5
67345;BME280;54230;52.402;6.276;2024-01-15T20:50:00;100590.0;;;2.5;84.5
67345;BME280;54230;52.402;6.276;2024-01-15T20:55:00;100600.0;;;2.6;84.6
67345;BME280;54230;52.402;6.276;2024-01-15T21:00:00;100600.0;;;2.6;84.4
67345;BME280;54230;52.402;6.276;2024-01-15T21:05:00;100600.0;;;2.7;84.5
67345;BME280;54230;52.402;6.276;2024-01-15T21:10:00;100610.0;;;2.7;84.4
67345;BME280;54230;52.402;6.276;2024-01-15T21:15:00;100610.0;;;2.7;84.3
67345;BME280;54230;52.402;6.276;2024-01-15T21:20:00;100630.0;;;2.7;84.3
67345;BME280;54230;52.402;6.276;2024-01-15T21:25:01;100640.0;;;2.7;84.1
67345;BME280;54230;52.402;6.276;2024-01-15T21:30:00;100650.0;;;2.8;84.2
67345;BME280;54230;52.402;6.276;2024-01-15T21:35:00;100640.0;;;2.7;84.1
67345;BME280;54230;52.402;6.276;2024-01-15T21:40:00;100650.0;;;2.6;84.1
67345;BME280;54230;52.402;6.276;2024-01-15T21:45:00;100650.0;;;2.4;84.1
67345;BME280;54230;52.402;6.276;2024-01-15T21:50:00;100660.0;;;2.3;84.3
67345;BME280;54230;52.402;6.276;2024-01-15T21:55:00;100670.0;;;2.3;84.4
67345;BME280;54230;52.402;6.276;2024-01-15T22:00:00;100670.0;;;2.2;84.4
67345;BME280;54230;52.402;6.276;2024-01-15T22:05:00;100680.0;;;2.2;84.4
67345;BME280;54230;52.402;6.276;2024-01-15T22:10:00;100680.0;;;2.2;84.5
67345;BME280;54230;52.402;6.276;2024-01-15T22:15:00;100690.0;;;2.3;84.3
67345;BME280;54230;52.402;6.276;2024-01-15T22:20:00;100690.0;;;2.3;84.2
67345;BME280;54230;52.402;6.276;2024-01-15T22:25:00;100690.0;;;2.4;84.3
67345;BME280;54230;52.402;6.276;2024-01-15T22:30:00;100700.0;;;2.7;84.0
67345;BME280;54230;52.402;6.276;2024-01-15T22:35:00;100730.0;;;2.9;83.5
67345;BME280;54230;52.402;6.276;2024-01-15T22:40:00;100740.0;;;2.8;83.4
67345;BME280;54230;52.402;6.276;2024-01-15T22:45:00;100730.0;;;2.8;83.4
67345;BME280;54230;52.402;6.276;2024-01-15T22:50:00;100730.0;;;2.7;83.3
67345;BME280;54230;52.402;6.276;2024-01-15T22:55:00;100720.0;;;2.6;83.5
67345;BME280;54230;52.402;6.276;2024-01-15T23:00:00;100720.0;;;2.5;83.6
67345;BME280;54230;52.402;6.276;2024-01-15T23:05:00;100730.0;;;2.3;83.7
67345;BME280;54230;52.402;6.276;2024-01-15T23:10:00;100740.0;;;2.4;83.7
67345;BME280;54230;52.402;6.276;2024-01-15T23:15:00;100740.0;;;2.5;83.6
67345;BME280;54230;52.402;6.276;2024-01-15T23:20:00;100740.0;;;2.4;83.6
67345;BME280;54230;52.402;6.276;2024-01-15T23:25:00;100740.0;;;2.5;83.6
67345;BME280;54230;52.402;6.276;2024-01-15T23:30:00;100750.0;;;2.4;83.7
67345;BME280;54230;52.402;6.276;2024-01-15T23:35:00;100760.0;;;2.5;83.7
67345;BME280;54230;52.402;6.276;2024-01-15T23:40:00;100770.0;;;2.5;83.6
67345;BME280;54230;52.402;6.276;2024-01-15T23:45:00;100770.0;;;2.5;83.6
67345;BME280;54230;52.402;6.276;2024-01-15T23:50:00;100770.0;;;2.4;83.6
67345;BME280;54230;52.402;6.276;2024-01-15T23:55:00;100760.0;;;2.1;83.9
